KAVX/AVX METAR and TAF weather

Enter ICAO airport designator
Station Type Date Time Source
KAVX METAR 2020/01/28 11:51 UTC NOAA

KAVX 281151Z AUTO 35008KT 10SM CLR 14/00 A3018 RMK AO2 SLP208 T01440000 10156 20139 58006 $


Station Type Date Time Source
KAVX Decoded METAR 2020/01/28 11:51 UTC NOAA

AVALON CATALINA AIRPORT, CA, United States (KAVX) 33-24N 118-25W 482M
Jan 28, 2020 - 06:51 AM EST / 2020.01.28 1151 UTC
Wind: from the N (350 degrees) at 9 MPH (8 KT):0
Visibility: 10 mile(s):0
Sky conditions: clear
Temperature: 57.9 F (14.4 C)
Dew Point: 32.0 F (0.0 C)
Relative Humidity: 37%
Pressure (altimeter): 30.18 in. Hg (1022 hPa)
Pressure tendency: 0.02 inches (0.6 hPa) lower than three hours ago
ob: KAVX 281151Z AUTO 35008KT 10SM CLR 14/00 A3018 RMK AO2 SLP208 T01440000 10156 20139 58006
cycle: 12

Station Type Date Time Source
KAVX TAF UTC NOAA

Error!

Example: see airport list